createdAt,value
2024-03-03T00:02:05.483Z,3.47
2024-03-03T00:04:37.386Z,3.28
2024-03-03T00:07:07.100Z,3.10
2024-03-03T00:09:39.020Z,3.42
2024-03-03T00:12:09.085Z,2.80
2024-03-03T00:14:39.280Z,3.22
2024-03-03T00:17:10.398Z,4.05
2024-03-03T00:19:42.698Z,2.95
2024-03-03T00:22:11.587Z,3.80
2024-03-03T00:24:42.333Z,3.90
2024-03-03T00:27:13.669Z,4.28
2024-03-03T00:29:46.706Z,4.55
2024-03-03T00:32:16.487Z,5.10
2024-03-03T00:34:47.758Z,4.10
2024-03-03T00:37:21.771Z,5.07
2024-03-03T00:39:52.557Z,5.95
2024-03-03T00:42:22.644Z,5.05
2024-03-03T00:44:57.339Z,4.97
2024-03-03T00:47:28.766Z,5.95
2024-03-03T00:50:00.045Z,5.28
2024-03-03T00:52:29.566Z,5.50
2024-03-03T00:55:00.907Z,5.22
2024-03-03T00:57:32.615Z,5.28
2024-03-03T01:00:06.855Z,5.05
2024-03-03T01:02:37.186Z,5.47
2024-03-03T01:05:07.526Z,6.20
2024-03-03T01:07:40.997Z,6.13
2024-03-03T01:10:14.022Z,6.20
2024-03-03T01:12:44.925Z,6.55
2024-03-03T01:15:16.428Z,6.65
2024-03-03T01:17:48.627Z,5.70
2024-03-03T01:20:18.540Z,6.78
2024-03-03T01:22:52.499Z,6.50
2024-03-03T01:25:23.418Z,7.30
2024-03-03T01:27:55.371Z,7.50
2024-03-03T01:30:28.239Z,6.78
2024-03-03T01:32:57.684Z,5.55
2024-03-03T01:35:31.580Z,6.32
2024-03-03T01:38:03.045Z,6.30
2024-03-03T01:40:35.428Z,5.15
2024-03-03T01:43:08.752Z,6.10
2024-03-03T01:45:44.623Z,7.05
2024-03-03T01:48:16.265Z,6.13
2024-03-03T01:50:47.035Z,5.13
2024-03-03T01:53:18.187Z,7.10
2024-03-03T01:55:49.141Z,6.68
2024-03-03T01:58:20.899Z,6.68
2024-03-03T02:00:57.037Z,6.32
2024-03-03T02:03:27.479Z,6.38
2024-03-03T02:06:00.266Z,6.72
2024-03-03T02:08:36.693Z,5.93
2024-03-03T02:11:07.513Z,6.00
2024-03-03T02:13:40.981Z,5.88
2024-03-03T02:16:11.468Z,6.03
2024-03-03T02:18:41.344Z,4.75
2024-03-03T02:21:09.837Z,6.10
2024-03-03T02:23:39.814Z,5.18
2024-03-03T02:26:08.306Z,5.90
2024-03-03T02:28:38.298Z,6.38
2024-03-03T02:31:06.926Z,6.80
2024-03-03T02:33:36.354Z,4.95
2024-03-03T02:36:05.542Z,5.43
2024-03-03T02:38:34.010Z,5.32
2024-03-03T02:41:03.840Z,6.28
2024-03-03T02:46:00.957Z,6.63
2024-03-03T02:48:29.341Z,4.75
2024-03-03T02:50:57.782Z,5.80
2024-03-03T02:53:26.272Z,5.93
2024-03-03T02:55:54.745Z,5.65
2024-03-03T02:58:24.839Z,6.28
2024-03-03T03:00:53.509Z,5.55
2024-03-03T03:03:22.060Z,5.43
2024-03-03T03:05:50.506Z,5.78
2024-03-03T03:08:20.332Z,5.72
2024-03-03T03:10:48.753Z,5.20
2024-03-03T03:13:17.318Z,5.18
2024-03-03T03:15:47.299Z,5.80
2024-03-03T03:18:15.590Z,6.70
2024-03-03T03:20:43.893Z,5.38
2024-03-03T03:23:13.320Z,5.97
2024-03-03T03:25:43.042Z,6.45
2024-03-03T03:28:11.490Z,5.50
2024-03-03T03:30:39.860Z,5.90
2024-03-03T03:33:10.706Z,5.40
2024-03-03T03:35:38.967Z,5.35
2024-03-03T03:38:07.609Z,5.38
2024-03-03T03:40:35.885Z,6.03
2024-03-03T03:43:07.011Z,6.03
2024-03-03T03:45:36.519Z,5.88
2024-03-03T03:48:05.823Z,4.43
2024-03-03T03:50:37.211Z,5.43
2024-03-03T03:53:06.093Z,5.65
2024-03-03T03:55:34.377Z,6.37
2024-03-03T03:58:04.930Z,5.85
2024-03-03T04:00:33.868Z,5.70
2024-03-03T04:03:02.345Z,5.23
2024-03-03T04:05:31.111Z,5.50
2024-03-03T04:08:00.823Z,5.93
2024-03-03T04:10:29.194Z,5.82
2024-03-03T04:12:58.081Z,5.07
2024-03-03T04:15:27.243Z,6.50
2024-03-03T04:17:55.677Z,5.90
2024-03-03T04:20:24.035Z,6.72
2024-03-03T04:22:52.594Z,6.20
2024-03-03T04:25:22.565Z,5.97
2024-03-03T04:27:50.857Z,6.70
2024-03-03T04:30:19.262Z,5.63
2024-03-03T04:32:47.973Z,7.07
2024-03-03T04:35:16.760Z,5.97
2024-03-03T04:37:45.523Z,6.53
2024-03-03T04:40:14.444Z,6.13
2024-03-03T04:42:44.597Z,6.73
2024-03-03T04:45:13.976Z,6.88
2024-03-03T04:47:42.595Z,6.28
2024-03-03T04:50:11.517Z,5.75
2024-03-03T04:52:40.121Z,6.57
2024-03-03T04:55:09.203Z,5.95
2024-03-03T04:57:37.801Z,5.97
2024-03-03T05:00:10.602Z,5.68
2024-03-03T05:02:38.999Z,6.78
2024-03-03T05:05:08.257Z,6.22
2024-03-03T05:07:36.937Z,4.95
2024-03-03T05:10:05.864Z,6.95
2024-03-03T05:12:34.507Z,5.85
2024-03-03T05:15:02.813Z,6.07
2024-03-03T05:17:32.780Z,6.13
2024-03-03T05:20:01.107Z,6.43
2024-03-03T05:22:29.690Z,7.05
2024-03-03T05:24:58.224Z,4.97
2024-03-03T05:27:26.680Z,7.18
2024-03-03T05:29:55.143Z,6.40
2024-03-03T05:32:24.129Z,5.07
2024-03-03T05:34:54.129Z,6.15
2024-03-03T05:37:22.894Z,5.20
2024-03-03T05:39:51.604Z,6.15
2024-03-03T05:42:19.895Z,5.43
2024-03-03T05:44:48.163Z,6.03
2024-03-03T05:47:17.084Z,5.95
2024-03-03T05:49:45.405Z,5.67
2024-03-03T05:52:15.237Z,5.13
2024-03-03T05:57:14.880Z,5.63
2024-03-03T05:59:43.829Z,5.85
2024-03-03T06:02:12.531Z,5.77
2024-03-03T06:04:41.220Z,6.35
2024-03-03T06:07:10.784Z,6.25
2024-03-03T06:12:11.124Z,6.03
2024-03-03T06:14:39.449Z,5.70
2024-03-03T06:17:08.778Z,7.00
2024-03-03T06:19:37.766Z,6.65
2024-03-03T06:22:06.257Z,5.72
2024-03-03T06:24:34.628Z,6.57
2024-03-03T06:27:04.772Z,6.80
2024-03-03T06:29:36.534Z,5.13
2024-03-03T06:32:05.534Z,6.63
2024-03-03T06:34:33.743Z,6.30
2024-03-03T06:37:02.449Z,6.95
2024-03-03T06:39:32.057Z,6.20
2024-03-03T06:42:00.741Z,6.25
2024-03-03T06:44:34.367Z,5.18
2024-03-03T06:47:03.401Z,6.18
2024-03-03T06:49:31.681Z,7.10
2024-03-03T06:52:00.056Z,6.80
2024-03-03T06:54:28.309Z,5.72
2024-03-03T06:56:56.933Z,6.93
2024-03-03T06:59:26.883Z,8.43
2024-03-03T07:01:57.304Z,7.95
2024-03-03T07:04:26.800Z,5.63
2024-03-03T07:06:56.075Z,8.00
2024-03-03T07:09:24.991Z,6.28
2024-03-03T07:11:55.058Z,7.25
2024-03-03T07:16:53.149Z,8.68
2024-03-03T07:19:23.307Z,7.70
2024-03-03T07:21:51.965Z,7.88
2024-03-03T07:24:20.571Z,7.18
2024-03-03T07:26:49.033Z,6.95
2024-03-03T07:29:17.467Z,7.75
2024-03-03T07:31:45.918Z,8.05
2024-03-03T07:34:14.180Z,7.97
2024-03-03T07:36:45.907Z,6.22
2024-03-03T07:39:15.367Z,7.18
2024-03-03T07:41:43.933Z,7.03
2024-03-03T07:44:12.910Z,6.75
2024-03-03T07:46:41.323Z,6.93
2024-03-03T07:49:09.957Z,7.38
2024-03-03T07:51:38.348Z,6.50
2024-03-03T07:54:08.113Z,6.10
2024-03-03T07:56:36.871Z,6.50
2024-03-03T07:59:07.065Z,6.55
2024-03-03T08:01:36.957Z,6.93
2024-03-03T08:04:07.691Z,7.25
2024-03-03T08:06:36.428Z,6.57
2024-03-03T08:09:05.697Z,7.47
2024-03-03T08:11:35.745Z,6.78
2024-03-03T08:14:05.976Z,6.70
2024-03-03T08:16:35.320Z,7.15
2024-03-03T08:19:03.929Z,6.93
2024-03-03T08:21:32.392Z,6.80
2024-03-03T08:24:01.753Z,7.20
2024-03-03T08:26:30.689Z,7.60
2024-03-03T08:29:01.195Z,7.68
2024-03-03T08:31:32.077Z,6.82
2024-03-03T08:34:00.526Z,7.30
2024-03-03T08:36:29.566Z,7.22
2024-03-03T08:38:58.320Z,7.67
2024-03-03T08:41:27.225Z,6.78
2024-03-03T08:43:55.817Z,7.63
2024-03-03T08:46:26.179Z,6.97
2024-03-03T08:48:54.937Z,6.13
2024-03-03T08:51:23.627Z,5.85
2024-03-03T08:53:51.979Z,6.35
2024-03-03T08:56:20.316Z,6.97
2024-03-03T08:58:48.609Z,6.75
2024-03-03T09:01:17.032Z,6.55
2024-03-03T09:03:47.149Z,6.28
2024-03-03T09:06:16.268Z,6.47
2024-03-03T09:08:45.756Z,6.15
2024-03-03T09:11:15.287Z,6.25
2024-03-03T09:13:44.136Z,6.35
2024-03-03T09:16:13.977Z,6.67
2024-03-03T09:18:43.174Z,6.95
2024-03-03T09:21:12.897Z,5.82
2024-03-03T09:26:10.657Z,6.30
2024-03-03T09:28:54.091Z,6.32
2024-03-03T09:31:41.603Z,7.05
2024-03-03T09:34:10.687Z,6.95
2024-03-03T09:36:41.478Z,6.43
2024-03-03T09:39:11.012Z,5.53
2024-03-03T09:41:51.152Z,5.85
2024-03-03T09:44:24.127Z,6.03
2024-03-03T09:46:54.527Z,6.68
2024-03-03T09:49:44.159Z,6.03
2024-03-03T09:52:22.493Z,5.95
2024-03-03T09:54:53.967Z,6.57
2024-03-03T09:57:35.101Z,5.53
2024-03-03T10:00:23.559Z,5.53
2024-03-03T10:02:53.186Z,6.07
2024-03-03T10:05:23.693Z,6.03
2024-03-03T10:08:12.874Z,5.80
2024-03-03T10:10:51.241Z,6.03
2024-03-03T10:13:19.927Z,5.55
2024-03-03T10:15:49.868Z,5.07
2024-03-03T10:18:21.991Z,4.78
2024-03-03T10:20:51.250Z,6.32
2024-03-03T10:23:25.607Z,5.93
2024-03-03T10:25:56.510Z,5.50
2024-03-03T10:28:25.442Z,5.63
2024-03-03T10:31:12.084Z,4.72
2024-03-03T10:33:54.032Z,5.20
2024-03-03T10:36:23.157Z,5.97
2024-03-03T10:38:54.554Z,5.45
2024-03-03T10:41:23.576Z,5.82
2024-03-03T10:43:52.717Z,6.22
2024-03-03T10:46:23.504Z,5.25
2024-03-03T10:48:54.507Z,6.15
2024-03-03T10:51:24.033Z,6.07
2024-03-03T10:53:54.154Z,6.25
2024-03-03T10:56:23.728Z,5.65
2024-03-03T10:58:53.899Z,5.35
2024-03-03T11:01:24.087Z,5.63
2024-03-03T11:03:54.470Z,6.25
2024-03-03T11:06:24.200Z,5.93
2024-03-03T11:09:01.320Z,5.32
2024-03-03T11:11:34.755Z,4.78
2024-03-03T11:14:11.396Z,5.38
2024-03-03T11:16:40.882Z,5.30
2024-03-03T11:19:15.395Z,5.25
2024-03-03T11:21:55.656Z,5.13
2024-03-03T11:24:31.876Z,5.10
2024-03-03T11:27:06.838Z,5.38
2024-03-03T11:29:35.505Z,4.97
2024-03-03T11:32:04.863Z,5.60
2024-03-03T11:34:37.900Z,5.50
2024-03-03T11:37:10.425Z,4.35
2024-03-03T11:39:56.041Z,5.13
2024-03-03T11:42:40.096Z,5.32
2024-03-03T11:45:10.661Z,5.15
2024-03-03T11:47:47.130Z,5.25
2024-03-03T11:50:20.581Z,5.22
2024-03-03T11:52:50.384Z,5.15
2024-03-03T11:55:40.990Z,5.47
2024-03-03T11:58:09.867Z,4.55
2024-03-03T12:01:12.320Z,4.60
2024-03-03T12:03:53.299Z,3.88
2024-03-03T12:06:22.377Z,4.18
2024-03-03T12:08:56.002Z,4.50
2024-03-03T12:11:27.464Z,3.72
2024-03-03T12:13:58.992Z,3.67
2024-03-03T12:16:27.706Z,4.03
2024-03-03T12:18:56.224Z,4.10
2024-03-03T12:21:24.663Z,3.95
2024-03-03T12:23:54.226Z,4.45
2024-03-03T12:28:53.156Z,3.50
2024-03-03T12:31:23.727Z,2.75
2024-03-03T12:33:54.018Z,3.72
2024-03-03T12:36:22.895Z,3.25
2024-03-03T12:38:53.091Z,3.95
2024-03-03T12:41:21.804Z,4.10
2024-03-03T12:43:50.111Z,4.40
2024-03-03T12:46:19.836Z,3.20
2024-03-03T12:48:48.078Z,3.88
2024-03-03T12:51:17.027Z,3.08
2024-03-03T12:53:45.726Z,3.67
2024-03-03T12:56:22.212Z,3.60
2024-03-03T12:58:51.205Z,2.83
2024-03-03T13:01:21.716Z,2.92
2024-03-03T13:03:54.616Z,2.67
2024-03-03T13:06:23.737Z,2.90
2024-03-03T13:08:54.304Z,2.95
2024-03-03T13:11:24.491Z,3.28
2024-03-03T13:13:53.679Z,2.83
2024-03-03T13:16:25.118Z,2.45
2024-03-03T13:19:01.138Z,1.77
2024-03-03T13:21:29.704Z,2.53
2024-03-03T13:26:42.509Z,1.80
2024-03-03T13:29:12.034Z,1.25
2024-03-03T13:31:42.097Z,1.42
2024-03-03T13:34:10.752Z,1.55
2024-03-03T13:36:39.261Z,1.50
2024-03-03T13:39:11.979Z,1.77
2024-03-03T13:41:41.239Z,1.55
2024-03-03T13:44:09.989Z,1.20
2024-03-03T13:46:38.865Z,1.30
2024-03-03T13:49:08.700Z,1.40
2024-03-03T13:51:37.254Z,1.63
2024-03-03T13:54:06.015Z,1.83
2024-03-03T13:56:34.367Z,1.97
2024-03-03T13:59:03.030Z,1.70
2024-03-03T14:01:31.413Z,1.33
2024-03-03T14:03:59.727Z,1.70
2024-03-03T14:06:29.682Z,1.50
2024-03-03T14:08:59.169Z,1.75
2024-03-03T14:11:28.335Z,1.95
2024-03-03T14:13:56.755Z,1.85
2024-03-03T14:16:25.063Z,1.55
2024-03-03T14:18:58.556Z,2.08
2024-03-03T14:21:27.577Z,1.75
2024-03-03T14:23:57.804Z,1.92
2024-03-03T14:26:26.221Z,1.58
2024-03-03T14:28:55.530Z,1.67
2024-03-03T14:31:24.203Z,1.67
2024-03-03T14:33:52.521Z,1.95
2024-03-03T14:36:20.860Z,2.00
2024-03-03T14:38:49.022Z,1.77
2024-03-03T14:41:18.578Z,2.38
2024-03-03T14:43:47.595Z,2.28
2024-03-03T14:46:16.796Z,2.05
2024-03-03T14:48:45.835Z,2.08
2024-03-03T14:51:14.531Z,1.80
2024-03-03T14:53:42.696Z,2.43
2024-03-03T14:56:11.350Z,2.42
2024-03-03T14:58:41.264Z,1.87
2024-03-03T15:01:10.815Z,1.92
2024-03-03T15:03:39.228Z,1.38
2024-03-03T15:06:08.666Z,1.67
2024-03-03T15:11:07.050Z,2.10
2024-03-03T15:13:35.480Z,2.47
2024-03-03T15:16:05.874Z,2.00
2024-03-03T15:18:34.465Z,1.88
2024-03-03T15:21:02.725Z,1.17
2024-03-03T15:23:31.044Z,1.77
2024-03-03T15:26:01.698Z,2.05
2024-03-03T15:28:30.186Z,2.30
2024-03-03T15:30:58.666Z,3.00
2024-03-03T15:33:29.798Z,2.97
2024-03-03T15:36:00.125Z,2.28
2024-03-03T15:38:28.742Z,2.08
2024-03-03T15:40:57.005Z,2.50
2024-03-03T15:43:25.550Z,2.17
2024-03-03T15:45:54.944Z,2.50
2024-03-03T15:48:23.804Z,2.08
2024-03-03T15:50:53.407Z,2.53
2024-03-03T15:53:21.706Z,2.33
2024-03-03T15:55:50.151Z,2.05
2024-03-03T15:58:18.527Z,2.50
2024-03-03T16:00:46.879Z,1.63
2024-03-03T16:03:15.775Z,2.15
2024-03-03T16:05:44.371Z,2.55
2024-03-03T16:08:14.286Z,2.15
2024-03-03T16:10:43.366Z,2.55
2024-03-03T16:13:12.043Z,1.77
2024-03-03T16:15:40.810Z,2.10
2024-03-03T16:18:09.377Z,2.33
2024-03-03T16:20:38.597Z,1.88
2024-03-03T16:23:07.201Z,2.20
2024-03-03T16:25:38.229Z,2.13
2024-03-03T16:28:09.472Z,2.42
2024-03-03T16:30:38.091Z,2.25
2024-03-03T16:33:06.646Z,2.05
2024-03-03T16:35:36.725Z,2.63
2024-03-03T16:38:06.949Z,2.60
2024-03-03T16:40:37.005Z,2.78
2024-03-03T16:43:05.824Z,2.42
2024-03-03T16:45:34.117Z,3.15
2024-03-03T16:48:03.911Z,2.40
2024-03-03T16:50:32.555Z,2.92
2024-03-03T16:53:01.039Z,3.53
2024-03-03T16:55:30.761Z,2.45
2024-03-03T16:58:00.720Z,2.55
2024-03-03T17:00:29.461Z,2.63
2024-03-03T17:02:58.180Z,2.95
2024-03-03T17:05:26.953Z,2.10
2024-03-03T17:07:56.191Z,2.60
2024-03-03T17:10:26.195Z,2.45
2024-03-03T17:12:56.287Z,3.33
2024-03-03T17:15:26.601Z,3.28
2024-03-03T17:17:55.914Z,2.83
2024-03-03T17:20:24.467Z,2.75
2024-03-03T17:22:52.941Z,2.88
2024-03-03T17:25:23.808Z,2.60
2024-03-03T17:27:52.450Z,2.90
2024-03-03T17:30:22.945Z,2.88
2024-03-03T17:32:53.262Z,2.65
2024-03-03T17:35:23.384Z,2.78
2024-03-03T17:37:52.597Z,2.72
2024-03-03T17:40:21.402Z,2.60
2024-03-03T17:42:49.922Z,3.80
2024-03-03T17:45:18.380Z,3.00
2024-03-03T17:47:46.801Z,2.85
2024-03-03T17:50:16.918Z,3.10
2024-03-03T17:52:46.574Z,2.20
2024-03-03T17:57:44.280Z,2.90
2024-03-03T18:00:14.079Z,3.40
2024-03-03T18:02:42.784Z,2.92
2024-03-03T18:05:11.665Z,3.47
2024-03-03T18:07:41.620Z,2.38
2024-03-03T18:10:11.671Z,2.42
2024-03-03T18:12:40.457Z,2.60
2024-03-03T18:15:09.862Z,2.95
2024-03-03T18:17:39.907Z,2.50
2024-03-03T18:20:10.038Z,2.17
2024-03-03T18:22:38.683Z,2.55
2024-03-03T18:25:09.851Z,2.17
2024-03-03T18:27:38.691Z,2.60
2024-03-03T18:30:09.498Z,2.80
2024-03-03T18:32:38.464Z,2.40
2024-03-03T18:35:09.097Z,3.35
2024-03-03T18:37:39.429Z,2.95
2024-03-03T18:40:11.070Z,2.78
2024-03-03T18:42:39.536Z,2.47
2024-03-03T18:45:08.655Z,3.13
2024-03-03T18:47:37.962Z,2.33
2024-03-03T18:52:36.124Z,3.03
2024-03-03T18:55:06.478Z,2.60
2024-03-03T18:57:36.924Z,2.33
2024-03-03T19:00:08.795Z,2.40
2024-03-03T19:02:37.333Z,2.10
2024-03-03T19:05:07.883Z,2.58
2024-03-03T19:07:36.668Z,2.78
2024-03-03T19:10:06.065Z,2.15
2024-03-03T19:12:34.388Z,2.58
2024-03-03T19:15:05.471Z,3.40
2024-03-03T19:17:34.006Z,3.15
2024-03-03T19:20:04.738Z,2.63
2024-03-03T19:22:34.142Z,2.38
2024-03-03T19:25:03.010Z,2.80
2024-03-03T19:27:31.698Z,3.47
2024-03-03T19:30:00.830Z,2.67
2024-03-03T19:32:30.703Z,2.53
2024-03-03T19:37:28.329Z,2.97
2024-03-03T19:39:57.679Z,2.40
2024-03-03T19:42:26.439Z,3.03
2024-03-03T19:44:57.111Z,3.08
2024-03-03T19:47:26.605Z,3.75
2024-03-03T19:49:57.850Z,3.05
2024-03-03T19:52:27.010Z,2.78
2024-03-03T19:54:55.715Z,2.97
2024-03-03T19:57:24.138Z,2.63
2024-03-03T19:59:53.362Z,2.72
2024-03-03T20:02:21.825Z,2.15
2024-03-03T20:04:50.829Z,2.10
2024-03-03T20:07:20.697Z,2.47
2024-03-03T20:09:49.560Z,3.33
2024-03-03T20:12:17.981Z,3.58
2024-03-03T20:14:48.745Z,3.00
2024-03-03T20:17:17.615Z,3.03
2024-03-03T20:19:47.488Z,2.50
2024-03-03T20:24:48.488Z,3.33
2024-03-03T20:29:45.196Z,3.20
2024-03-03T20:32:13.583Z,2.78
2024-03-03T20:34:42.436Z,3.00
2024-03-03T20:37:10.736Z,3.30
2024-03-03T20:39:39.113Z,3.22
2024-03-03T20:42:09.137Z,3.05
2024-03-03T20:44:37.458Z,2.53
2024-03-03T20:47:06.579Z,3.38
2024-03-03T20:49:36.090Z,3.78
2024-03-03T20:52:05.026Z,4.43
2024-03-03T20:54:33.796Z,5.57
2024-03-03T20:57:02.604Z,4.60
2024-03-03T20:59:32.352Z,5.00
2024-03-03T21:04:29.038Z,5.20
2024-03-03T21:06:59.805Z,6.07
2024-03-03T21:09:30.670Z,6.30
2024-03-03T21:11:59.573Z,4.78
2024-03-03T21:14:30.570Z,3.97
2024-03-03T21:17:01.377Z,4.78
2024-03-03T21:19:30.138Z,3.95
2024-03-03T21:21:58.560Z,4.88
2024-03-03T21:24:26.820Z,6.72
2024-03-03T21:26:58.601Z,6.65
2024-03-03T21:29:27.352Z,6.72
2024-03-03T21:31:55.707Z,6.90
2024-03-03T21:34:25.807Z,7.70
2024-03-03T21:36:55.511Z,6.15
2024-03-03T21:41:54.518Z,5.78
2024-03-03T21:44:24.909Z,5.30
2024-03-03T21:46:53.714Z,5.50
2024-03-03T21:49:22.182Z,5.95
2024-03-03T21:51:52.266Z,5.47
2024-03-03T21:54:20.882Z,5.25
2024-03-03T21:56:49.140Z,4.65
2024-03-03T21:59:17.511Z,5.78
2024-03-03T22:01:55.667Z,5.55
2024-03-03T22:04:28.746Z,6.22
2024-03-03T22:06:58.399Z,6.38
2024-03-03T22:11:56.819Z,5.33
2024-03-03T22:14:25.323Z,6.07
2024-03-03T22:16:54.158Z,5.03
2024-03-03T22:19:23.265Z,6.80
2024-03-03T22:21:52.321Z,6.05
2024-03-03T22:24:22.151Z,6.30
2024-03-03T22:29:20.351Z,4.93
2024-03-03T22:31:50.445Z,4.78
2024-03-03T22:34:18.794Z,4.20
2024-03-03T22:36:48.264Z,4.28
2024-03-03T22:39:17.200Z,4.50
2024-03-03T22:41:47.097Z,4.67
2024-03-03T22:46:45.411Z,3.70
2024-03-03T22:49:14.451Z,4.35
2024-03-03T22:51:42.802Z,4.57
2024-03-03T22:54:11.543Z,3.92
2024-03-03T22:56:39.821Z,4.32
2024-03-03T22:59:09.735Z,4.80
2024-03-03T23:01:38.157Z,4.00
2024-03-03T23:04:06.652Z,5.40
2024-03-03T23:06:35.509Z,4.30
2024-03-03T23:09:06.252Z,4.87
2024-03-03T23:11:38.287Z,4.53
2024-03-03T23:14:07.065Z,3.67
2024-03-03T23:16:37.037Z,4.18
2024-03-03T23:19:07.402Z,4.05
2024-03-03T23:21:35.685Z,3.83
2024-03-03T23:24:04.467Z,4.88
2024-03-03T23:26:33.048Z,4.10
2024-03-03T23:29:01.267Z,4.10
2024-03-03T23:31:29.991Z,3.75
2024-03-03T23:33:59.849Z,3.58
2024-03-03T23:38:56.336Z,4.20
2024-03-03T23:41:25.256Z,3.88
2024-03-03T23:46:23.871Z,4.25
2024-03-03T23:48:52.215Z,4.03
2024-03-03T23:51:22.320Z,5.10
2024-03-03T23:53:53.605Z,3.80
2024-03-03T23:56:22.310Z,3.83
2024-03-03T23:58:51.627Z,4.07
